sensor_id;sensor_type;location;lat;lon;timestamp;P1;durP1;ratioP1;P2;durP2;ratioP2
63975;SDS011;50167;47.958;21.780;2022-11-06T00:00:17;2.10;;;1.73;;
63975;SDS011;50167;47.958;21.780;2022-11-06T00:02:44;5.07;;;2.50;;
63975;SDS011;50167;47.958;21.780;2022-11-06T00:05:11;3.70;;;1.97;;
63975;SDS011;50167;47.958;21.780;2022-11-06T00:07:57;2.07;;;1.87;;
63975;SDS011;50167;47.958;21.780;2022-11-06T00:10:23;2.63;;;1.90;;
63975;SDS011;50167;47.958;21.780;2022-11-06T00:12:49;2.37;;;1.90;;
63975;SDS011;50167;47.958;21.780;2022-11-06T00:15:15;2.13;;;1.90;;
63975;SDS011;50167;47.958;21.780;2022-11-06T00:17:42;2.00;;;1.70;;
63975;SDS011;50167;47.958;21.780;2022-11-06T00:20:08;1.73;;;1.53;;
63975;SDS011;50167;47.958;21.780;2022-11-06T00:22:35;1.93;;;1.60;;
63975;SDS011;50167;47.958;21.780;2022-11-06T00:25:03;2.43;;;1.80;;
63975;SDS011;50167;47.958;21.780;2022-11-06T00:27:32;2.27;;;2.00;;
63975;SDS011;50167;47.958;21.780;2022-11-06T00:30:04;3.17;;;1.93;;
63975;SDS011;50167;47.958;21.780;2022-11-06T00:32:33;2.37;;;1.93;;
63975;SDS011;50167;47.958;21.780;2022-11-06T00:34:59;3.20;;;1.70;;
63975;SDS011;50167;47.958;21.780;2022-11-06T00:37:26;1.77;;;1.50;;
63975;SDS011;50167;47.958;21.780;2022-11-06T00:39:52;3.37;;;2.13;;
63975;SDS011;50167;47.958;21.780;2022-11-06T00:42:18;3.00;;;1.80;;
63975;SDS011;50167;47.958;21.780;2022-11-06T00:44:44;4.67;;;2.10;;
63975;SDS011;50167;47.958;21.780;2022-11-06T00:47:10;2.10;;;1.83;;
63975;SDS011;50167;47.958;21.780;2022-11-06T00:49:36;3.53;;;1.97;;
63975;SDS011;50167;47.958;21.780;2022-11-06T00:52:03;2.10;;;1.80;;
63975;SDS011;50167;47.958;21.780;2022-11-06T00:54:29;11.80;;;2.80;;
63975;SDS011;50167;47.958;21.780;2022-11-06T00:56:55;3.57;;;2.30;;
63975;SDS011;50167;47.958;21.780;2022-11-06T00:59:21;2.63;;;2.07;;
63975;SDS011;50167;47.958;21.780;2022-11-06T01:01:47;4.07;;;1.97;;
63975;SDS011;50167;47.958;21.780;2022-11-06T01:04:17;6.53;;;2.40;;
63975;SDS011;50167;47.958;21.780;2022-11-06T01:06:47;3.23;;;2.37;;
63975;SDS011;50167;47.958;21.780;2022-11-06T01:09:18;4.43;;;2.70;;
63975;SDS011;50167;47.958;21.780;2022-11-06T01:11:50;3.63;;;3.10;;
63975;SDS011;50167;47.958;21.780;2022-11-06T01:14:19;2.30;;;1.95;;
63975;SDS011;50167;47.958;21.780;2022-11-06T01:16:47;3.27;;;2.10;;
63975;SDS011;50167;47.958;21.780;2022-11-06T01:19:14;3.77;;;2.03;;
63975;SDS011;50167;47.958;21.780;2022-11-06T01:21:43;2.57;;;1.97;;
63975;SDS011;50167;47.958;21.780;2022-11-06T01:24:16;2.40;;;2.00;;
63975;SDS011;50167;47.958;21.780;2022-11-06T01:26:41;2.37;;;2.10;;
63975;SDS011;50167;47.958;21.780;2022-11-06T01:29:09;2.17;;;1.80;;
63975;SDS011;50167;47.958;21.780;2022-11-06T01:34:04;2.30;;;2.10;;
63975;SDS011;50167;47.958;21.780;2022-11-06T01:36:32;1.97;;;1.63;;
63975;SDS011;50167;47.958;21.780;2022-11-06T01:39:00;3.00;;;2.20;;
63975;SDS011;50167;47.958;21.780;2022-11-06T01:41:36;2.80;;;1.98;;
63975;SDS011;50167;47.958;21.780;2022-11-06T01:47:18;2.60;;;2.17;;
63975;SDS011;50167;47.958;21.780;2022-11-06T01:49:50;2.13;;;1.87;;
63975;SDS011;50167;47.958;21.780;2022-11-06T01:52:20;2.00;;;1.80;;
63975;SDS011;50167;47.958;21.780;2022-11-06T01:54:50;3.13;;;2.13;;
63975;SDS011;50167;47.958;21.780;2022-11-06T01:57:19;3.57;;;2.50;;
63975;SDS011;50167;47.958;21.780;2022-11-06T01:59:46;2.97;;;2.43;;
63975;SDS011;50167;47.958;21.780;2022-11-06T02:02:13;2.80;;;2.10;;
63975;SDS011;50167;47.958;21.780;2022-11-06T02:04:42;3.53;;;2.30;;
63975;SDS011;50167;47.958;21.780;2022-11-06T02:07:12;2.08;;;1.87;;
63975;SDS011;50167;47.958;21.780;2022-11-06T02:09:40;2.23;;;2.03;;
63975;SDS011;50167;47.958;21.780;2022-11-06T02:12:10;4.10;;;2.07;;
63975;SDS011;50167;47.958;21.780;2022-11-06T02:17:46;2.00;;;1.80;;
63975;SDS011;50167;47.958;21.780;2022-11-06T02:20:52;2.43;;;1.93;;
63975;SDS011;50167;47.958;21.780;2022-11-06T02:26:55;2.63;;;2.30;;
63975;SDS011;50167;47.958;21.780;2022-11-06T02:32:26;2.53;;;1.90;;
63975;SDS011;50167;47.958;21.780;2022-11-06T02:35:23;4.43;;;2.20;;
63975;SDS011;50167;47.958;21.780;2022-11-06T02:37:57;3.27;;;2.15;;
63975;SDS011;50167;47.958;21.780;2022-11-06T02:40:35;3.60;;;2.93;;
63975;SDS011;50167;47.958;21.780;2022-11-06T02:43:21;4.30;;;2.90;;
63975;SDS011;50167;47.958;21.780;2022-11-06T02:46:18;3.67;;;2.37;;
63975;SDS011;50167;47.958;21.780;2022-11-06T02:49:01;2.63;;;2.30;;
63975;SDS011;50167;47.958;21.780;2022-11-06T02:51:34;3.10;;;2.50;;
63975;SDS011;50167;47.958;21.780;2022-11-06T02:54:04;2.83;;;2.33;;
63975;SDS011;50167;47.958;21.780;2022-11-06T02:56:34;2.10;;;1.83;;
63975;SDS011;50167;47.958;21.780;2022-11-06T02:59:14;2.10;;;1.90;;
63975;SDS011;50167;47.958;21.780;2022-11-06T03:01:46;3.80;;;2.27;;
63975;SDS011;50167;47.958;21.780;2022-11-06T03:04:21;2.83;;;1.93;;
63975;SDS011;50167;47.958;21.780;2022-11-06T03:06:58;4.60;;;3.07;;
63975;SDS011;50167;47.958;21.780;2022-11-06T03:09:41;3.07;;;2.37;;
63975;SDS011;50167;47.958;21.780;2022-11-06T03:12:30;2.53;;;2.13;;
63975;SDS011;50167;47.958;21.780;2022-11-06T03:18:15;4.07;;;3.03;;
63975;SDS011;50167;47.958;21.780;2022-11-06T03:20:44;3.47;;;2.60;;
63975;SDS011;50167;47.958;21.780;2022-11-06T03:23:33;3.07;;;2.37;;
63975;SDS011;50167;47.958;21.780;2022-11-06T03:26:14;11.93;;;3.23;;
63975;SDS011;50167;47.958;21.780;2022-11-06T03:28:54;2.87;;;2.50;;
63975;SDS011;50167;47.958;21.780;2022-11-06T03:31:26;3.10;;;2.27;;
63975;SDS011;50167;47.958;21.780;2022-11-06T03:33:57;3.57;;;2.50;;
63975;SDS011;50167;47.958;21.780;2022-11-06T03:36:30;2.57;;;2.37;;
63975;SDS011;50167;47.958;21.780;2022-11-06T03:39:04;3.33;;;2.77;;
63975;SDS011;50167;47.958;21.780;2022-11-06T03:41:32;3.37;;;2.72;;
63975;SDS011;50167;47.958;21.780;2022-11-06T03:44:03;2.83;;;2.53;;
63975;SDS011;50167;47.958;21.780;2022-11-06T03:46:32;5.53;;;2.43;;
63975;SDS011;50167;47.958;21.780;2022-11-06T03:49:04;5.42;;;2.83;;
63975;SDS011;50167;47.958;21.780;2022-11-06T03:51:38;2.83;;;2.40;;
63975;SDS011;50167;47.958;21.780;2022-11-06T03:54:14;4.07;;;2.63;;
63975;SDS011;50167;47.958;21.780;2022-11-06T03:56:43;3.30;;;2.80;;
63975;SDS011;50167;47.958;21.780;2022-11-06T03:59:11;3.40;;;2.60;;
63975;SDS011;50167;47.958;21.780;2022-11-06T04:01:42;3.83;;;2.97;;
63975;SDS011;50167;47.958;21.780;2022-11-06T04:06:46;3.60;;;3.17;;
63975;SDS011;50167;47.958;21.780;2022-11-06T04:09:28;3.50;;;2.87;;
63975;SDS011;50167;47.958;21.780;2022-11-06T04:12:18;3.10;;;2.77;;
63975;SDS011;50167;47.958;21.780;2022-11-06T04:15:06;3.67;;;2.97;;
63975;SDS011;50167;47.958;21.780;2022-11-06T04:17:37;3.90;;;3.07;;
63975;SDS011;50167;47.958;21.780;2022-11-06T04:20:06;5.20;;;3.10;;
63975;SDS011;50167;47.958;21.780;2022-11-06T04:23:43;4.20;;;3.37;;
63975;SDS011;50167;47.958;21.780;2022-11-06T04:25:33;4.60;;;3.17;;
63975;SDS011;50167;47.958;21.780;2022-11-06T04:28:27;3.50;;;3.00;;
63975;SDS011;50167;47.958;21.780;2022-11-06T04:31:32;3.17;;;2.70;;
63975;SDS011;50167;47.958;21.780;2022-11-06T04:34:09;4.30;;;3.63;;
63975;SDS011;50167;47.958;21.780;2022-11-06T04:36:48;3.70;;;3.33;;
63975;SDS011;50167;47.958;21.780;2022-11-06T04:39:29;6.00;;;3.40;;
63975;SDS011;50167;47.958;21.780;2022-11-06T04:45:07;4.07;;;3.30;;
63975;SDS011;50167;47.958;21.780;2022-11-06T04:47:44;3.67;;;2.93;;
63975;SDS011;50167;47.958;21.780;2022-11-06T04:50:11;4.70;;;3.60;;
63975;SDS011;50167;47.958;21.780;2022-11-06T04:52:40;4.10;;;3.70;;
63975;SDS011;50167;47.958;21.780;2022-11-06T04:55:08;4.67;;;4.03;;
63975;SDS011;50167;47.958;21.780;2022-11-06T04:57:34;3.63;;;3.13;;
63975;SDS011;50167;47.958;21.780;2022-11-06T05:00:00;4.33;;;3.93;;
63975;SDS011;50167;47.958;21.780;2022-11-06T05:02:26;5.13;;;3.53;;
63975;SDS011;50167;47.958;21.780;2022-11-06T05:04:52;7.27;;;4.27;;
63975;SDS011;50167;47.958;21.780;2022-11-06T05:07:20;4.13;;;3.40;;
63975;SDS011;50167;47.958;21.780;2022-11-06T05:09:46;7.30;;;4.77;;
63975;SDS011;50167;47.958;21.780;2022-11-06T05:12:12;4.30;;;3.90;;
63975;SDS011;50167;47.958;21.780;2022-11-06T05:14:39;6.53;;;4.20;;
63975;SDS011;50167;47.958;21.780;2022-11-06T05:17:05;5.03;;;4.33;;
63975;SDS011;50167;47.958;21.780;2022-11-06T05:19:31;5.03;;;3.90;;
63975;SDS011;50167;47.958;21.780;2022-11-06T05:21:57;5.90;;;4.57;;
63975;SDS011;50167;47.958;21.780;2022-11-06T05:24:42;8.90;;;5.23;;
63975;SDS011;50167;47.958;21.780;2022-11-06T05:27:08;4.80;;;3.73;;
63975;SDS011;50167;47.958;21.780;2022-11-06T05:29:34;5.13;;;3.90;;
63975;SDS011;50167;47.958;21.780;2022-11-06T05:32:00;5.93;;;4.53;;
63975;SDS011;50167;47.958;21.780;2022-11-06T05:34:26;5.03;;;4.00;;
63975;SDS011;50167;47.958;21.780;2022-11-06T05:36:52;4.87;;;4.30;;
63975;SDS011;50167;47.958;21.780;2022-11-06T05:39:18;6.53;;;5.07;;
63975;SDS011;50167;47.958;21.780;2022-11-06T05:41:44;7.37;;;5.07;;
63975;SDS011;50167;47.958;21.780;2022-11-06T05:44:10;6.70;;;5.00;;
63975;SDS011;50167;47.958;21.780;2022-11-06T05:46:36;6.37;;;4.87;;
63975;SDS011;50167;47.958;21.780;2022-11-06T05:49:02;6.97;;;5.10;;
63975;SDS011;50167;47.958;21.780;2022-11-06T05:51:28;4.80;;;4.00;;
63975;SDS011;50167;47.958;21.780;2022-11-06T05:53:54;5.93;;;4.73;;
63975;SDS011;50167;47.958;21.780;2022-11-06T05:56:20;9.40;;;5.53;;
63975;SDS011;50167;47.958;21.780;2022-11-06T05:58:46;5.53;;;4.50;;
63975;SDS011;50167;47.958;21.780;2022-11-06T06:01:12;6.97;;;4.13;;
63975;SDS011;50167;47.958;21.780;2022-11-06T06:03:39;6.03;;;5.00;;
63975;SDS011;50167;47.958;21.780;2022-11-06T06:18:23;6.07;;;5.03;;
63975;SDS011;50167;47.958;21.780;2022-11-06T06:20:49;9.27;;;6.17;;
63975;SDS011;50167;47.958;21.780;2022-11-06T06:23:15;7.93;;;5.20;;
63975;SDS011;50167;47.958;21.780;2022-11-06T06:25:41;7.70;;;5.67;;
63975;SDS011;50167;47.958;21.780;2022-11-06T06:28:07;6.83;;;5.23;;
63975;SDS011;50167;47.958;21.780;2022-11-06T06:30:34;9.40;;;5.90;;
63975;SDS011;50167;47.958;21.780;2022-11-06T06:33:03;9.17;;;6.60;;
63975;SDS011;50167;47.958;21.780;2022-11-06T06:35:31;11.17;;;7.17;;
63975;SDS011;50167;47.958;21.780;2022-11-06T06:37:58;8.43;;;6.57;;
63975;SDS011;50167;47.958;21.780;2022-11-06T06:40:24;6.13;;;4.93;;
63975;SDS011;50167;47.958;21.780;2022-11-06T06:42:54;10.87;;;8.00;;
63975;SDS011;50167;47.958;21.780;2022-11-06T06:45:23;12.27;;;6.17;;
63975;SDS011;50167;47.958;21.780;2022-11-06T06:47:50;9.93;;;6.33;;
63975;SDS011;50167;47.958;21.780;2022-11-06T06:50:16;9.37;;;5.97;;
63975;SDS011;50167;47.958;21.780;2022-11-06T06:52:42;9.60;;;6.93;;
63975;SDS011;50167;47.958;21.780;2022-11-06T06:55:09;19.00;;;7.77;;
63975;SDS011;50167;47.958;21.780;2022-11-06T06:57:35;12.67;;;8.33;;
63975;SDS011;50167;47.958;21.780;2022-11-06T07:00:01;9.23;;;6.40;;
63975;SDS011;50167;47.958;21.780;2022-11-06T07:02:28;8.07;;;5.67;;
63975;SDS011;50167;47.958;21.780;2022-11-06T07:04:54;8.07;;;5.90;;
63975;SDS011;50167;47.958;21.780;2022-11-06T07:07:20;10.73;;;9.27;;
63975;SDS011;50167;47.958;21.780;2022-11-06T07:09:46;8.93;;;5.60;;
63975;SDS011;50167;47.958;21.780;2022-11-06T07:12:13;7.70;;;6.00;;
63975;SDS011;50167;47.958;21.780;2022-11-06T07:14:39;8.07;;;6.37;;
63975;SDS011;50167;47.958;21.780;2022-11-06T07:17:05;16.67;;;6.67;;
63975;SDS011;50167;47.958;21.780;2022-11-06T07:19:31;8.80;;;5.30;;
63975;SDS011;50167;47.958;21.780;2022-11-06T07:21:57;6.57;;;5.67;;
63975;SDS011;50167;47.958;21.780;2022-11-06T07:24:23;6.90;;;4.30;;
63975;SDS011;50167;47.958;21.780;2022-11-06T07:26:49;6.00;;;4.43;;
63975;SDS011;50167;47.958;21.780;2022-11-06T15:43:38;8.80;;;6.43;;
63975;SDS011;50167;47.958;21.780;2022-11-06T15:51:49;8.60;;;6.83;;
63975;SDS011;50167;47.958;21.780;2022-11-06T15:54:32;9.23;;;6.40;;
63975;SDS011;50167;47.958;21.780;2022-11-06T15:57:03;9.03;;;6.60;;
63975;SDS011;50167;47.958;21.780;2022-11-06T15:59:42;7.35;;;5.72;;
63975;SDS011;50167;47.958;21.780;2022-11-06T16:02:12;14.80;;;6.90;;
63975;SDS011;50167;47.958;21.780;2022-11-06T16:04:47;9.67;;;5.90;;
63975;SDS011;50167;47.958;21.780;2022-11-06T16:07:15;8.80;;;5.87;;
63975;SDS011;50167;47.958;21.780;2022-11-06T16:09:43;11.70;;;7.67;;
63975;SDS011;50167;47.958;21.780;2022-11-06T16:12:14;12.80;;;7.97;;
63975;SDS011;50167;47.958;21.780;2022-11-06T16:14:43;8.63;;;6.40;;
63975;SDS011;50167;47.958;21.780;2022-11-06T16:17:31;14.57;;;7.20;;
63975;SDS011;50167;47.958;21.780;2022-11-06T16:19:50;8.50;;;6.67;;
63975;SDS011;50167;47.958;21.780;2022-11-06T16:22:26;17.00;;;7.67;;
63975;SDS011;50167;47.958;21.780;2022-11-06T16:24:57;10.43;;;6.10;;
63975;SDS011;50167;47.958;21.780;2022-11-06T16:27:28;8.20;;;6.00;;
63975;SDS011;50167;47.958;21.780;2022-11-06T16:30:05;11.17;;;6.40;;
63975;SDS011;50167;47.958;21.780;2022-11-06T16:32:37;11.73;;;7.07;;
63975;SDS011;50167;47.958;21.780;2022-11-06T16:35:28;11.83;;;6.20;;
63975;SDS011;50167;47.958;21.780;2022-11-06T16:40:55;15.53;;;6.90;;
63975;SDS011;50167;47.958;21.780;2022-11-06T20:30:07;85.33;;;47.93;;
63975;SDS011;50167;47.958;21.780;2022-11-06T20:32:34;81.53;;;45.50;;
63975;SDS011;50167;47.958;21.780;2022-11-06T20:35:01;78.63;;;45.27;;
63975;SDS011;50167;47.958;21.780;2022-11-06T20:37:29;85.37;;;48.63;;
63975;SDS011;50167;47.958;21.780;2022-11-06T20:39:56;72.33;;;40.03;;
63975;SDS011;50167;47.958;21.780;2022-11-06T20:42:22;75.33;;;40.27;;
63975;SDS011;50167;47.958;21.780;2022-11-06T20:44:49;70.33;;;38.37;;
63975;SDS011;50167;47.958;21.780;2022-11-06T20:47:15;68.27;;;37.63;;
63975;SDS011;50167;47.958;21.780;2022-11-06T20:49:41;64.80;;;36.73;;
63975;SDS011;50167;47.958;21.780;2022-11-06T20:52:07;65.70;;;37.73;;
63975;SDS011;50167;47.958;21.780;2022-11-06T20:54:34;65.43;;;37.37;;
63975;SDS011;50167;47.958;21.780;2022-11-06T20:57:00;62.47;;;35.13;;
63975;SDS011;50167;47.958;21.780;2022-11-06T20:59:27;72.60;;;38.50;;
63975;SDS011;50167;47.958;21.780;2022-11-06T21:01:53;95.80;;;49.50;;
63975;SDS011;50167;47.958;21.780;2022-11-06T21:04:19;89.43;;;45.07;;
63975;SDS011;50167;47.958;21.780;2022-11-06T21:06:46;93.37;;;48.60;;
63975;SDS011;50167;47.958;21.780;2022-11-06T21:09:12;86.43;;;44.53;;
63975;SDS011;50167;47.958;21.780;2022-11-06T21:11:40;75.40;;;40.20;;
63975;SDS011;50167;47.958;21.780;2022-11-06T21:14:07;73.53;;;38.90;;
63975;SDS011;50167;47.958;21.780;2022-11-06T21:16:33;62.40;;;36.57;;
63975;SDS011;50167;47.958;21.780;2022-11-06T21:19:10;73.37;;;37.83;;
63975;SDS011;50167;47.958;21.780;2022-11-06T21:21:36;69.03;;;34.97;;
63975;SDS011;50167;47.958;21.780;2022-11-06T21:24:03;70.40;;;38.37;;
63975;SDS011;50167;47.958;21.780;2022-11-06T21:26:31;101.20;;;47.63;;
63975;SDS011;50167;47.958;21.780;2022-11-06T21:29:01;100.05;;;55.08;;
63975;SDS011;50167;47.958;21.780;2022-11-06T21:31:31;112.17;;;55.35;;
63975;SDS011;50167;47.958;21.780;2022-11-06T21:34:00;114.03;;;54.93;;
63975;SDS011;50167;47.958;21.780;2022-11-06T21:36:32;101.30;;;52.77;;
63975;SDS011;50167;47.958;21.780;2022-11-06T21:39:01;101.87;;;50.10;;
63975;SDS011;50167;47.958;21.780;2022-11-06T21:41:34;94.37;;;46.30;;
63975;SDS011;50167;47.958;21.780;2022-11-06T21:44:01;82.20;;;43.80;;
63975;SDS011;50167;47.958;21.780;2022-11-06T21:46:30;85.27;;;45.43;;
63975;SDS011;50167;47.958;21.780;2022-11-06T21:48:57;87.07;;;41.57;;
63975;SDS011;50167;47.958;21.780;2022-11-06T21:51:24;79.67;;;39.03;;
63975;SDS011;50167;47.958;21.780;2022-11-06T21:53:53;67.50;;;38.30;;
63975;SDS011;50167;47.958;21.780;2022-11-06T21:56:39;81.50;;;40.70;;
63975;SDS011;50167;47.958;21.780;2022-11-06T21:59:07;74.77;;;39.67;;
63975;SDS011;50167;47.958;21.780;2022-11-06T22:01:37;72.15;;;40.48;;
63975;SDS011;50167;47.958;21.780;2022-11-06T22:04:05;72.90;;;38.67;;
63975;SDS011;50167;47.958;21.780;2022-11-06T22:06:32;69.53;;;38.07;;
63975;SDS011;50167;47.958;21.780;2022-11-06T22:08:59;72.80;;;42.03;;
63975;SDS011;50167;47.958;21.780;2022-11-06T22:11:28;81.67;;;39.73;;
63975;SDS011;50167;47.958;21.780;2022-11-06T22:14:04;70.93;;;41.63;;
63975;SDS011;50167;47.958;21.780;2022-11-06T22:16:34;72.35;;;39.55;;
63975;SDS011;50167;47.958;21.780;2022-11-06T22:19:03;73.07;;;42.00;;
63975;SDS011;50167;47.958;21.780;2022-11-06T22:21:31;80.77;;;43.57;;
63975;SDS011;50167;47.958;21.780;2022-11-06T22:23:58;67.00;;;38.87;;
63975;SDS011;50167;47.958;21.780;2022-11-06T22:26:25;64.83;;;37.13;;
63975;SDS011;50167;47.958;21.780;2022-11-06T22:28:56;66.30;;;37.08;;
63975;SDS011;50167;47.958;21.780;2022-11-06T22:31:29;68.00;;;38.27;;
63975;SDS011;50167;47.958;21.780;2022-11-06T22:33:56;74.83;;;39.43;;
63975;SDS011;50167;47.958;21.780;2022-11-06T22:36:22;78.03;;;37.40;;
63975;SDS011;50167;47.958;21.780;2022-11-06T22:38:49;66.07;;;35.73;;
63975;SDS011;50167;47.958;21.780;2022-11-06T22:41:18;69.80;;;36.57;;
63975;SDS011;50167;47.958;21.780;2022-11-06T22:43:46;57.30;;;31.05;;
63975;SDS011;50167;47.958;21.780;2022-11-06T22:46:15;63.50;;;32.73;;
63975;SDS011;50167;47.958;21.780;2022-11-06T22:48:43;64.60;;;31.60;;
63975;SDS011;50167;47.958;21.780;2022-11-06T22:51:11;53.80;;;31.40;;
63975;SDS011;50167;47.958;21.780;2022-11-06T22:53:40;58.30;;;31.93;;
63975;SDS011;50167;47.958;21.780;2022-11-06T22:56:07;47.07;;;27.17;;
63975;SDS011;50167;47.958;21.780;2022-11-06T22:58:36;59.10;;;28.23;;
63975;SDS011;50167;47.958;21.780;2022-11-06T23:01:02;42.93;;;24.30;;
63975;SDS011;50167;47.958;21.780;2022-11-06T23:03:29;48.73;;;27.30;;
63975;SDS011;50167;47.958;21.780;2022-11-06T23:05:56;45.33;;;29.13;;
63975;SDS011;50167;47.958;21.780;2022-11-06T23:08:25;44.30;;;24.73;;
63975;SDS011;50167;47.958;21.780;2022-11-06T23:10:52;45.07;;;25.63;;
63975;SDS011;50167;47.958;21.780;2022-11-06T23:13:20;37.80;;;24.30;;
63975;SDS011;50167;47.958;21.780;2022-11-06T23:15:47;34.27;;;22.37;;
63975;SDS011;50167;47.958;21.780;2022-11-06T23:18:13;35.73;;;22.03;;
63975;SDS011;50167;47.958;21.780;2022-11-06T23:20:40;37.83;;;20.50;;
63975;SDS011;50167;47.958;21.780;2022-11-06T23:23:06;34.67;;;21.07;;
63975;SDS011;50167;47.958;21.780;2022-11-06T23:25:32;36.33;;;22.80;;
63975;SDS011;50167;47.958;21.780;2022-11-06T23:27:59;37.07;;;21.83;;
63975;SDS011;50167;47.958;21.780;2022-11-06T23:30:26;34.87;;;20.90;;
63975;SDS011;50167;47.958;21.780;2022-11-06T23:32:54;32.20;;;20.83;;
63975;SDS011;50167;47.958;21.780;2022-11-06T23:35:20;34.30;;;22.47;;
63975;SDS011;50167;47.958;21.780;2022-11-06T23:37:47;38.43;;;20.90;;
63975;SDS011;50167;47.958;21.780;2022-11-06T23:40:13;30.93;;;20.33;;
63975;SDS011;50167;47.958;21.780;2022-11-06T23:42:39;32.17;;;21.07;;
63975;SDS011;50167;47.958;21.780;2022-11-06T23:45:08;31.20;;;17.50;;
63975;SDS011;50167;47.958;21.780;2022-11-06T23:47:54;31.70;;;19.10;;
63975;SDS011;50167;47.958;21.780;2022-11-06T23:50:21;29.17;;;17.73;;
63975;SDS011;50167;47.958;21.780;2022-11-06T23:52:47;29.37;;;17.70;;
63975;SDS011;50167;47.958;21.780;2022-11-06T23:55:13;29.17;;;17.37;;
63975;SDS011;50167;47.958;21.780;2022-11-06T23:57:39;26.00;;;17.90;;
